Time;durP1;ratioP1;P1;durP2;ratioP2;P2;SDS_P1;SDS_P2;PMS_P1;PMS_P2;Temp;Humidity;BMP_temperature;BMP_pressure;BME280_temperature;BME280_humidity;BME280_pressure;Samples;Min_cycle;Max_cycle;Signal;HPM_P1;HPM_P2
2023/01/03 00:01:29;;;;;;;21.35;4.63;;;;;;;;;;5026399;28;20441;-69
2023/01/03 00:03:56;;;;;;;12.70;3.70;;;;;;;;;;5027645;28;20490;-69
2023/01/03 00:06:25;;;;;;;22.58;4.32;;;;;;;;;;5025713;28;20104;-70
2023/01/03 00:08:52;;;;;;;14.50;4.15;;;;;;;;;;5040307;28;20047;-70
2023/01/03 00:14:09;;;;;;;25.88;10.13;;;;;;;;;;5021328;28;20120;-71
2023/01/03 00:16:36;;;;;;;15.50;6.60;;;;;;;;;;5026857;28;20091;-69
2023/01/03 00:19:10;;;;;;;12.43;4.88;;;;;;;;;;5024445;28;20406;-70
2023/01/03 00:21:37;;;;;;;13.80;5.10;;;;;;;;;;5025026;28;20081;-70
2023/01/03 00:24:04;;;;;;;14.93;5.03;;;;;;;;;;5026939;28;20873;-73
2023/01/03 00:26:31;;;;;;;15.10;6.03;;;;;;;;;;5026080;28;20029;-70
2023/01/03 00:28:58;;;;;;;24.13;6.53;;;;;;;;;;5028519;28;20034;-70
2023/01/03 00:31:24;;;;;;;33.67;6.80;;;;;;;;;;5026436;28;20029;-69
2023/01/03 00:33:51;;;;;;;15.75;6.45;;;;;;;;;;5039361;28;20173;-69
2023/01/03 00:36:18;;;;;;;20.23;5.50;;;;;;;;;;5025320;28;20044;-70
2023/01/03 00:38:44;;;;;;;22.63;5.65;;;;;;;;;;5031009;28;20048;-70
2023/01/03 00:41:13;;;;;;;19.73;6.40;;;;;;;;;;5038421;28;20033;-72
2023/01/03 00:43:41;;;;;;;16.88;5.75;;;;;;;;;;5024990;28;20056;-71
2023/01/03 00:46:10;;;;;;;23.35;6.50;;;;;;;;;;5012153;28;20788;-68
2023/01/03 00:48:37;;;;;;;16.10;5.18;;;;;;;;;;5035347;28;20068;-70
2023/01/03 00:51:07;;;;;;;19.92;5.32;;;;;;;;;;5048406;28;20055;-69
2023/01/03 00:53:34;;;;;;;25.17;5.30;;;;;;;;;;5040211;28;20055;-70
2023/01/03 00:56:05;;;;;;;15.60;5.15;;;;;;;;;;5056686;28;20044;-71
2023/01/03 00:58:33;;;;;;;18.70;5.22;;;;;;;;;;5057780;28;20037;-69
2023/01/03 01:01:07;;;;;;;26.00;6.35;;;;;;;;;;5044144;28;20041;-69
2023/01/03 01:03:34;;;;;;;19.25;6.45;;;;;;;;;;5026702;28;20053;-69
2023/01/03 01:06:09;;;;;;;14.82;5.32;;;;;;;;;;5044810;28;20040;-68
2023/01/03 01:08:36;;;;;;;21.67;6.75;;;;;;;;;;5046046;28;20045;-69
2023/01/03 01:11:04;;;;;;;20.90;5.20;;;;;;;;;;5045779;28;20033;-69
2023/01/03 01:13:31;;;;;;;23.77;4.95;;;;;;;;;;5054774;28;20034;-70
2023/01/03 01:16:05;;;;;;;21.13;4.18;;;;;;;;;;5023314;28;20042;-70
2023/01/03 01:18:32;;;;;;;11.65;3.88;;;;;;;;;;5022567;28;20486;-69
2023/01/03 01:20:59;;;;;;;9.43;3.50;;;;;;;;;;5021797;28;20056;-69
2023/01/03 01:23:25;;;;;;;13.77;3.50;;;;;;;;;;5039897;28;20044;-69
2023/01/03 01:25:52;;;;;;;7.95;2.83;;;;;;;;;;5037028;28;20052;-69
2023/01/03 01:28:19;;;;;;;17.90;3.22;;;;;;;;;;5042454;28;20049;-71
2023/01/03 01:30:45;;;;;;;19.45;3.63;;;;;;;;;;5046544;28;20510;-69
2023/01/03 01:33:12;;;;;;;9.35;2.65;;;;;;;;;;5047383;28;20200;-68
2023/01/03 01:35:39;;;;;;;15.10;4.38;;;;;;;;;;5045068;28;20333;-69
2023/01/03 01:38:05;;;;;;;9.63;4.20;;;;;;;;;;5045084;28;20045;-68
2023/01/03 01:40:32;;;;;;;10.63;4.25;;;;;;;;;;5048611;28;21010;-69
2023/01/03 01:45:47;;;;;;;7.95;2.60;;;;;;;;;;5045114;28;20048;-68
2023/01/03 01:48:15;;;;;;;14.80;2.90;;;;;;;;;;5045244;28;20459;-69
2023/01/03 01:50:45;;;;;;;6.07;2.50;;;;;;;;;;5045846;28;20270;-67
2023/01/03 01:53:44;;;;;;;7.53;1.73;;;;;;;;;;5049122;28;20065;-68
2023/01/03 01:56:13;;;;;;;4.78;1.77;;;;;;;;;;5028855;28;20037;-71
2023/01/03 01:58:42;;;;;;;10.73;2.30;;;;;;;;;;5049406;28;20071;-70
2023/01/03 02:01:13;;;;;;;6.32;2.17;;;;;;;;;;5052883;28;20037;-67
2023/01/03 02:03:41;;;;;;;8.65;2.08;;;;;;;;;;5056607;28;20064;-69
2023/01/03 02:06:09;;;;;;;9.30;2.20;;;;;;;;;;5048085;28;20038;-67
2023/01/03 02:08:36;;;;;;;4.47;1.75;;;;;;;;;;5042825;28;20044;-70
2023/01/03 02:11:12;;;;;;;5.93;2.35;;;;;;;;;;5011235;28;20045;-68
2023/01/03 02:14:05;;;;;;;6.78;2.22;;;;;;;;;;5035590;28;20084;-67
2023/01/03 02:16:39;;;;;;;7.70;1.70;;;;;;;;;;5047050;28;20130;-69
2023/01/03 02:19:26;;;;;;;7.32;2.35;;;;;;;;;;5045375;28;20852;-69
2023/01/03 02:22:11;;;;;;;6.65;1.58;;;;;;;;;;5046879;28;20060;-70
2023/01/03 02:24:57;;;;;;;4.82;2.05;;;;;;;;;;5045393;28;20079;-71
2023/01/03 02:27:49;;;;;;;5.00;1.60;;;;;;;;;;5047104;28;20136;-72
2023/01/03 02:30:19;;;;;;;8.15;2.08;;;;;;;;;;5031025;28;20047;-68
2023/01/03 02:32:49;;;;;;;5.22;1.60;;;;;;;;;;5046521;28;20037;-70
2023/01/03 02:35:21;;;;;;;9.35;2.33;;;;;;;;;;5044609;28;20037;-68
2023/01/03 02:37:48;;;;;;;9.60;3.33;;;;;;;;;;5033943;28;20033;-68
2023/01/03 02:40:41;;;;;;;4.95;1.40;;;;;;;;;;5027298;28;20040;-69
2023/01/03 02:43:25;;;;;;;6.28;1.55;;;;;;;;;;5028387;28;20148;-68
2023/01/03 02:46:03;;;;;;;5.03;1.48;;;;;;;;;;5025184;28;20071;-68
2023/01/03 02:48:35;;;;;;;6.47;1.35;;;;;;;;;;5025428;28;20045;-68
2023/01/03 02:51:03;;;;;;;6.40;1.90;;;;;;;;;;5026425;28;20033;-68
2023/01/03 02:53:36;;;;;;;3.97;1.58;;;;;;;;;;5022579;28;20041;-69
2023/01/03 02:56:09;;;;;;;5.65;1.83;;;;;;;;;;5027848;28;20034;-69
2023/01/03 02:58:37;;;;;;;12.20;1.90;;;;;;;;;;5024202;28;20332;-69
2023/01/03 03:01:05;;;;;;;4.47;1.80;;;;;;;;;;5027476;28;20133;-68
2023/01/03 03:03:34;;;;;;;4.35;2.00;;;;;;;;;;5024270;28;20046;-70
2023/01/03 03:06:03;;;;;;;5.60;2.13;;;;;;;;;;5028712;28;20507;-68
2023/01/03 03:08:29;;;;;;;5.13;2.03;;;;;;;;;;5027474;28;20045;-66
2023/01/03 03:13:50;;;;;;;5.65;2.05;;;;;;;;;;5023979;28;20880;-67
2023/01/03 03:25:38;;;;;;;4.95;2.28;;;;;;;;;;4971785;28;20594;-68
2023/01/03 03:30:56;;;;;;;11.38;2.38;;;;;;;;;;5034778;28;20155;-67
2023/01/03 03:33:24;;;;;;;11.70;2.90;;;;;;;;;;5047728;28;20041;-66
2023/01/03 03:35:55;;;;;;;7.65;2.65;;;;;;;;;;5048073;28;20060;-65
2023/01/03 03:38:36;;;;;;;7.07;2.80;;;;;;;;;;5045125;28;20048;-65
2023/01/03 03:46:55;;;;;;;5.90;2.60;;;;;;;;;;5042438;28;20044;-66
2023/01/03 03:49:39;;;;;;;11.77;3.38;;;;;;;;;;5045989;28;20432;-67
2023/01/03 03:52:05;;;;;;;;;;;;;;;;;;5049247;28;20173;-66
2023/01/03 03:54:34;;;;;;;6.70;2.53;;;;;;;;;;5045140;28;19972;-66
2023/01/03 03:57:05;;;;;;;9.75;2.88;;;;;;;;;;5047422;28;20045;-66
2023/01/03 03:59:32;;;;;;;9.43;2.95;;;;;;;;;;5046515;28;20393;-66
2023/01/03 04:02:00;;;;;;;12.88;2.92;;;;;;;;;;5047556;28;20044;-65
2023/01/03 04:04:31;;;;;;;9.50;3.25;;;;;;;;;;5046122;28;20045;-65
2023/01/03 04:07:01;;;;;;;14.07;3.33;;;;;;;;;;5045733;28;20457;-66
2023/01/03 04:09:27;;;;;;;8.05;3.17;;;;;;;;;;5045964;28;20689;-65
2023/01/03 04:11:54;;;;;;;9.63;3.05;;;;;;;;;;5047092;28;20033;-66
2023/01/03 04:14:21;;;;;;;7.55;3.00;;;;;;;;;;5046986;28;20033;-66
2023/01/03 04:16:47;;;;;;;15.80;3.42;;;;;;;;;;5046321;28;20480;-66
2023/01/03 04:19:14;;;;;;;8.75;3.70;;;;;;;;;;5046754;28;20037;-65
2023/01/03 04:21:41;;;;;;;12.65;3.25;;;;;;;;;;5046756;28;20593;-66
2023/01/03 04:24:08;;;;;;;16.50;4.03;;;;;;;;;;5048211;28;20127;-65
2023/01/03 04:26:34;;;;;;;19.35;4.10;;;;;;;;;;5045799;28;20036;-66
2023/01/03 04:29:01;;;;;;;20.48;4.30;;;;;;;;;;5046847;28;20036;-65
2023/01/03 04:31:27;;;;;;;14.25;3.83;;;;;;;;;;5053793;28;20040;-66
2023/01/03 04:33:54;;;;;;;7.30;3.00;;;;;;;;;;5036048;28;20127;-65
2023/01/03 04:36:21;;;;;;;9.40;3.40;;;;;;;;;;5041502;28;20029;-65
2023/01/03 04:38:48;;;;;;;11.63;2.92;;;;;;;;;;5042537;28;20036;-65
2023/01/03 04:41:15;;;;;;;14.73;3.83;;;;;;;;;;5043769;28;20060;-64
2023/01/03 04:44:00;;;;;;;7.75;3.28;;;;;;;;;;5041810;28;20069;-64
2023/01/03 04:46:35;;;;;;;10.55;3.63;;;;;;;;;;5042319;28;20404;-67
2023/01/03 04:49:03;;;;;;;10.05;3.58;;;;;;;;;;5042608;28;20041;-66
2023/01/03 04:51:30;;;;;;;12.15;3.95;;;;;;;;;;5044803;28;20103;-66
2023/01/03 04:53:57;;;;;;;9.68;3.28;;;;;;;;;;5045880;28;20048;-66
2023/01/03 04:56:24;;;;;;;12.45;3.55;;;;;;;;;;5046214;28;20036;-66
2023/01/03 04:58:51;;;;;;;13.07;3.85;;;;;;;;;;5046639;28;20070;-67
2023/01/03 05:01:18;;;;;;;13.85;3.63;;;;;;;;;;5047084;28;21820;-66
2023/01/03 05:03:44;;;;;;;7.30;3.58;;;;;;;;;;5042866;28;20080;-66
2023/01/03 05:06:11;;;;;;;9.20;3.85;;;;;;;;;;5025931;28;20079;-65
2023/01/03 05:08:38;;;;;;;9.93;3.05;;;;;;;;;;5023795;28;20053;-66
2023/01/03 05:11:05;;;;;;;8.90;3.83;;;;;;;;;;5029578;28;20375;-69
2023/01/03 05:13:32;;;;;;;16.55;3.50;;;;;;;;;;5027171;28;20056;-66
2023/01/03 05:16:07;;;;;;;20.50;4.38;;;;;;;;;;5026346;28;20040;-67
2023/01/03 05:18:34;;;;;;;8.80;3.10;;;;;;;;;;5025143;28;20052;-65
2023/01/03 05:26:58;;;;;;;16.20;3.13;;;;;;;;;;5025855;28;20074;-66
2023/01/03 05:29:25;;;;;;;21.27;3.60;;;;;;;;;;5026747;28;20063;-67
2023/01/03 05:31:52;;;;;;;6.13;2.50;;;;;;;;;;5023545;28;20176;-65
2023/01/03 05:34:19;;;;;;;13.38;3.00;;;;;;;;;;5025588;28;20708;-66
2023/01/03 05:36:46;;;;;;;23.23;3.38;;;;;;;;;;5025471;28;20038;-66
2023/01/03 05:39:12;;;;;;;25.23;3.85;;;;;;;;;;5026141;28;20198;-65
2023/01/03 05:44:24;;;;;;;10.35;2.42;;;;;;;;;;5023737;28;20086;-64
2023/01/03 05:46:51;;;;;;;7.88;2.85;;;;;;;;;;5026471;28;20103;-65
2023/01/03 05:49:18;;;;;;;10.05;2.30;;;;;;;;;;5025113;28;20476;-67
2023/01/03 05:51:44;;;;;;;5.18;2.45;;;;;;;;;;5025556;28;20147;-66
2023/01/03 05:54:13;;;;;;;10.10;2.95;;;;;;;;;;5024101;28;20088;-67
2023/01/03 05:56:40;;;;;;;8.25;2.78;;;;;;;;;;5038640;28;20454;-67
2023/01/03 05:59:07;;;;;;;8.35;2.80;;;;;;;;;;5028650;28;20494;-68
2023/01/03 06:01:33;;;;;;;9.18;3.20;;;;;;;;;;5024915;28;20048;-66
2023/01/03 06:04:00;;;;;;;5.88;2.35;;;;;;;;;;5024898;28;20119;-66
2023/01/03 06:06:27;;;;;;;7.40;2.40;;;;;;;;;;5025066;28;20049;-67
2023/01/03 06:08:54;;;;;;;8.02;2.80;;;;;;;;;;5007861;28;20617;-66
2023/01/03 06:11:21;;;;;;;19.67;3.03;;;;;;;;;;5025504;28;20049;-66
2023/01/03 06:13:48;;;;;;;12.48;3.50;;;;;;;;;;5026039;28;20155;-67
2023/01/03 06:19:01;;;;;;;8.15;2.47;;;;;;;;;;5024690;28;20484;-67
2023/01/03 06:21:27;;;;;;;11.15;2.22;;;;;;;;;;5032073;28;20115;-66
2023/01/03 06:23:54;;;;;;;13.63;3.17;;;;;;;;;;5035155;28;20040;-68
2023/01/03 06:26:22;;;;;;;8.75;2.80;;;;;;;;;;5031480;28;20041;-68
2023/01/03 06:28:49;;;;;;;12.18;2.70;;;;;;;;;;5036678;28;20052;-69
2023/01/03 06:31:16;;;;;;;8.57;2.83;;;;;;;;;;5026026;28;20033;-67
2023/01/03 06:33:43;;;;;;;18.55;3.08;;;;;;;;;;5024621;28;20047;-67
2023/01/03 06:36:11;;;;;;;7.22;2.33;;;;;;;;;;5024785;28;20175;-70
2023/01/03 06:38:38;;;;;;;5.88;2.65;;;;;;;;;;5024667;28;20034;-67
2023/01/03 06:41:05;;;;;;;6.53;2.85;;;;;;;;;;5024717;28;20127;-65
2023/01/03 06:43:32;;;;;;;8.13;2.65;;;;;;;;;;5023456;28;20270;-66
2023/01/03 06:54:18;;;;;;;10.98;2.08;;;;;;;;;;5025615;28;20119;-67
2023/01/03 06:56:45;;;;;;;6.35;1.98;;;;;;;;;;5046629;28;20052;-67
2023/01/03 06:59:11;;;;;;;4.53;1.83;;;;;;;;;;5026929;28;20144;-66
2023/01/03 07:01:38;;;;;;;5.20;1.95;;;;;;;;;;5043455;28;20041;-66
2023/01/03 07:04:05;;;;;;;11.05;2.40;;;;;;;;;;5029799;28;20055;-66
2023/01/03 07:06:32;;;;;;;11.00;2.85;;;;;;;;;;5028187;28;20045;-66
2023/01/03 07:08:58;;;;;;;7.75;2.38;;;;;;;;;;5027756;28;20076;-66
2023/01/03 07:11:25;;;;;;;5.60;2.25;;;;;;;;;;5027582;28;20048;-68
2023/01/03 07:13:58;;;;;;;4.15;1.80;;;;;;;;;;5027826;28;20049;-66
2023/01/03 07:16:28;;;;;;;7.78;2.22;;;;;;;;;;5041517;28;20556;-67
2023/01/03 07:18:55;;;;;;;7.75;1.75;;;;;;;;;;5028856;28;20109;-67
2023/01/03 07:21:25;;;;;;;15.65;2.28;;;;;;;;;;5027665;28;20045;-66
2023/01/03 07:23:53;;;;;;;8.05;2.30;;;;;;;;;;5043319;28;20056;-68
2023/01/03 07:26:20;;;;;;;10.52;2.40;;;;;;;;;;5043407;28;20042;-66
2023/01/03 07:28:46;;;;;;;9.20;2.13;;;;;;;;;;5028728;28;20124;-66
2023/01/03 07:31:13;;;;;;;7.70;2.35;;;;;;;;;;5029726;28;20057;-65
2023/01/03 07:33:40;;;;;;;8.02;2.65;;;;;;;;;;5027680;28;20141;-66
2023/01/03 07:36:08;;;;;;;7.68;2.42;;;;;;;;;;5028870;28;20047;-65
2023/01/03 07:38:35;;;;;;;6.90;2.55;;;;;;;;;;5028480;28;20037;-65
2023/01/03 07:41:04;;;;;;;12.20;2.58;;;;;;;;;;5031197;28;20049;-66
2023/01/03 07:43:50;;;;;;;9.15;2.60;;;;;;;;;;5056507;28;20052;-68
2023/01/03 07:46:19;;;;;;;15.05;2.28;;;;;;;;;;5064838;28;20087;-67
2023/01/03 07:48:47;;;;;;;10.43;2.72;;;;;;;;;;5063136;28;20419;-66
2023/01/03 07:51:14;;;;;;;7.05;2.42;;;;;;;;;;5064181;28;20616;-65
2023/01/03 07:53:41;;;;;;;11.90;2.58;;;;;;;;;;5063293;28;20128;-65
2023/01/03 07:56:12;;;;;;;5.60;2.30;;;;;;;;;;5038095;28;20265;-66
2023/01/03 07:58:39;;;;;;;7.88;2.38;;;;;;;;;;5053176;28;20055;-68
2023/01/03 08:01:10;;;;;;;6.03;1.83;;;;;;;;;;5063193;28;20512;-65
2023/01/03 08:03:38;;;;;;;8.13;2.30;;;;;;;;;;5061693;28;20320;-66
2023/01/03 08:06:06;;;;;;;9.23;2.60;;;;;;;;;;5062718;28;20086;-66
2023/01/03 08:08:33;;;;;;;5.22;2.53;;;;;;;;;;5060887;28;20123;-66
2023/01/03 08:14:04;;;;;;;6.07;2.20;;;;;;;;;;5029792;28;20043;-65
2023/01/03 08:16:31;;;;;;;4.95;1.85;;;;;;;;;;5074109;27;20040;-66
2023/01/03 08:18:57;;;;;;;10.88;2.30;;;;;;;;;;5065766;28;20067;-65
2023/01/03 08:21:24;;;;;;;8.07;2.42;;;;;;;;;;5068494;28;20460;-66
2023/01/03 08:23:50;;;;;;;9.68;2.15;;;;;;;;;;5065173;28;20131;-67
2023/01/03 08:26:17;;;;;;;10.38;2.78;;;;;;;;;;5068031;28;20527;-66
2023/01/03 08:28:44;;;;;;;5.53;2.00;;;;;;;;;;5064301;28;20052;-66
2023/01/03 08:31:21;;;;;;;9.85;2.38;;;;;;;;;;5067915;28;20036;-65
2023/01/03 08:33:54;;;;;;;5.75;1.80;;;;;;;;;;5068964;28;20044;-67
2023/01/03 08:36:21;;;;;;;6.43;2.57;;;;;;;;;;5067456;28;20036;-67
2023/01/03 08:38:58;;;;;;;5.28;1.85;;;;;;;;;;5069481;28;20127;-66
2023/01/03 08:41:27;;;;;;;4.38;2.33;;;;;;;;;;5066804;28;20062;-67
2023/01/03 08:43:54;;;;;;;7.70;2.45;;;;;;;;;;5068118;28;20049;-66
2023/01/03 08:46:22;;;;;;;4.32;1.88;;;;;;;;;;5063807;28;20136;-66
2023/01/03 08:48:48;;;;;;;8.10;2.30;;;;;;;;;;5053040;28;20037;-67
2023/01/03 08:51:15;;;;;;;11.88;2.13;;;;;;;;;;5027943;28;20115;-66
2023/01/03 08:53:42;;;;;;;6.30;2.70;;;;;;;;;;5025178;28;20033;-67
2023/01/03 08:56:08;;;;;;;8.10;1.77;;;;;;;;;;5025238;28;20075;-67
2023/01/03 08:58:35;;;;;;;4.32;2.05;;;;;;;;;;5027218;28;20055;-66
2023/01/03 09:01:03;;;;;;;10.95;1.77;;;;;;;;;;5025826;28;20783;-66
2023/01/03 09:03:30;;;;;;;8.85;2.53;;;;;;;;;;5023972;28;20095;-65
2023/01/03 09:06:17;;;;;;;3.72;2.00;;;;;;;;;;5064830;28;20634;-66
2023/01/03 09:08:43;;;;;;;7.75;2.50;;;;;;;;;;5028417;28;20125;-66
2023/01/03 09:11:10;;;;;;;5.22;2.22;;;;;;;;;;5070468;28;20658;-66
2023/01/03 09:13:37;;;;;;;6.43;2.40;;;;;;;;;;5071341;28;20249;-66
2023/01/03 09:16:08;;;;;;;4.15;2.15;;;;;;;;;;5082918;28;20239;-66
2023/01/03 09:18:36;;;;;;;6.00;2.53;;;;;;;;;;5065156;28;20043;-67
2023/01/03 09:21:04;;;;;;;7.35;2.45;;;;;;;;;;5082749;28;20057;-66
2023/01/03 09:23:31;;;;;;;5.38;2.17;;;;;;;;;;5069235;28;20123;-65
2023/01/03 09:25:58;;;;;;;4.38;1.98;;;;;;;;;;5061682;28;20162;-65
2023/01/03 09:28:25;;;;;;;5.72;2.33;;;;;;;;;;5082613;28;20047;-65
2023/01/03 09:30:51;;;;;;;5.18;2.30;;;;;;;;;;5083810;28;20035;-66
2023/01/03 09:33:18;;;;;;;9.85;2.38;;;;;;;;;;5083745;28;21288;-66
2023/01/03 09:35:45;;;;;;;6.95;2.20;;;;;;;;;;5084343;28;20036;-66
2023/01/03 09:38:12;;;;;;;5.50;1.77;;;;;;;;;;5033395;28;20043;-67
2023/01/03 09:40:40;;;;;;;5.30;2.42;;;;;;;;;;5025997;28;20056;-66
2023/01/03 09:43:12;;;;;;;5.68;2.08;;;;;;;;;;5026512;28;20067;-67
2023/01/03 09:45:42;;;;;;;16.17;2.85;;;;;;;;;;5025576;28;20068;-66
2023/01/03 09:48:10;;;;;;;11.63;2.20;;;;;;;;;;5025821;28;20821;-66
2023/01/03 09:50:38;;;;;;;4.82;2.30;;;;;;;;;;5025816;28;20071;-66
2023/01/03 10:04:35;;;;;;;8.80;2.55;;;;;;;;;;5026476;28;20126;-67
2023/01/03 10:07:01;;;;;;;4.70;2.05;;;;;;;;;;5029431;28;20037;-68
2023/01/03 10:09:28;;;;;;;7.00;2.47;;;;;;;;;;5025134;28;20034;-67
2023/01/03 10:11:55;;;;;;;3.47;1.58;;;;;;;;;;5026493;28;20061;-67
2023/01/03 10:14:40;;;;;;;4.07;1.80;;;;;;;;;;5025706;28;20048;-66
2023/01/03 10:17:06;;;;;;;8.35;2.63;;;;;;;;;;5025809;28;21008;-65
2023/01/03 10:19:45;;;;;;;11.98;2.65;;;;;;;;;;5026483;28;20045;-67
2023/01/03 10:22:13;;;;;;;7.90;1.77;;;;;;;;;;5025747;28;20045;-66
2023/01/03 10:24:45;;;;;;;8.88;2.15;;;;;;;;;;5023106;28;20034;-67
2023/01/03 10:27:20;;;;;;;3.72;1.60;;;;;;;;;;5024796;28;20193;-66
2023/01/03 10:29:50;;;;;;;16.48;3.20;;;;;;;;;;5024572;28;20586;-66
2023/01/03 10:32:35;;;;;;;6.50;2.38;;;;;;;;;;5041259;28;20500;-66
2023/01/03 10:35:13;;;;;;;4.10;2.00;;;;;;;;;;5026290;28;20115;-66
2023/01/03 10:37:40;;;;;;;3.95;1.92;;;;;;;;;;5036742;28;20406;-66
2023/01/03 10:40:07;;;;;;;7.07;2.25;;;;;;;;;;5030011;28;20039;-66
2023/01/03 10:42:35;;;;;;;4.85;1.83;;;;;;;;;;5028759;28;20036;-68
2023/01/03 10:45:07;;;;;;;3.45;1.70;;;;;;;;;;5028268;28;20805;-67
2023/01/03 10:47:33;;;;;;;4.68;1.77;;;;;;;;;;5028661;28;20069;-67
2023/01/03 10:50:01;;;;;;;6.72;2.08;;;;;;;;;;5029156;28;20182;-65
2023/01/03 10:52:33;;;;;;;4.18;1.85;;;;;;;;;;5028996;28;20041;-67
2023/01/03 10:55:01;;;;;;;3.80;1.75;;;;;;;;;;5030044;28;20462;-65
2023/01/03 10:57:37;;;;;;;7.28;2.20;;;;;;;;;;5045728;28;20095;-67
2023/01/03 11:00:23;;;;;;;5.10;1.75;;;;;;;;;;5029271;28;20124;-66
2023/01/03 11:02:50;;;;;;;4.53;1.73;;;;;;;;;;5028525;28;20585;-66
2023/01/03 11:05:18;;;;;;;4.35;1.25;;;;;;;;;;5031211;28;20316;-66
2023/01/03 11:07:46;;;;;;;13.65;1.58;;;;;;;;;;5029994;28;20042;-65
2023/01/03 11:10:17;;;;;;;5.20;1.60;;;;;;;;;;5030557;28;20144;-66
2023/01/03 11:12:45;;;;;;;7.38;1.58;;;;;;;;;;5027054;28;20061;-67
2023/01/03 11:15:16;;;;;;;5.93;2.15;;;;;;;;;;5031688;28;20746;-66
2023/01/03 11:17:53;;;;;;;3.97;1.52;;;;;;;;;;5033593;28;20442;-67
2023/01/03 11:20:21;;;;;;;6.43;2.28;;;;;;;;;;5032861;28;20205;-68
2023/01/03 11:22:58;;;;;;;5.15;2.13;;;;;;;;;;5035263;28;20065;-67
2023/01/03 11:25:54;;;;;;;4.28;1.65;;;;;;;;;;5058747;28;20044;-66
2023/01/03 11:28:37;;;;;;;4.70;1.75;;;;;;;;;;5065405;28;20040;-65
2023/01/03 11:31:21;;;;;;;3.53;1.38;;;;;;;;;;5065918;28;20082;-66
2023/01/03 11:34:03;;;;;;;9.05;2.15;;;;;;;;;;5047187;28;20063;-66
2023/01/03 11:36:56;;;;;;;4.68;1.60;;;;;;;;;;5081546;28;20056;-66
2023/01/03 11:39:22;;;;;;;7.18;1.55;;;;;;;;;;5061913;28;20069;-65
2023/01/03 11:41:58;;;;;;;3.83;1.60;;;;;;;;;;5065672;28;20275;-66
2023/01/03 11:44:42;;;;;;;3.85;1.70;;;;;;;;;;5063228;28;20086;-66
2023/01/03 11:47:09;;;;;;;9.35;1.75;;;;;;;;;;5060790;28;20076;-65
2023/01/03 11:49:41;;;;;;;7.32;1.38;;;;;;;;;;5063799;28;20444;-65
2023/01/03 11:52:18;;;;;;;3.65;1.52;;;;;;;;;;5064421;28;20113;-65
2023/01/03 11:54:51;;;;;;;2.72;1.08;;;;;;;;;;5066062;28;20103;-66
2023/01/03 11:57:26;;;;;;;3.83;1.58;;;;;;;;;;5043606;28;20037;-66
2023/01/03 11:59:56;;;;;;;3.25;1.48;;;;;;;;;;5026108;28;20052;-65
2023/01/03 12:02:42;;;;;;;5.00;1.45;;;;;;;;;;5027904;28;20386;-65
2023/01/03 12:05:09;;;;;;;4.78;1.88;;;;;;;;;;5026626;28;20398;-65
2023/01/03 12:07:55;;;;;;;2.70;1.60;;;;;;;;;;5026348;28;20051;-65
2023/01/03 12:10:46;;;;;;;3.75;1.45;;;;;;;;;;5024280;28;20045;-65
2023/01/03 12:13:19;;;;;;;3.20;1.40;;;;;;;;;;5028380;28;20477;-65
2023/01/03 12:15:50;;;;;;;4.32;1.85;;;;;;;;;;5027521;28;20044;-65
2023/01/03 12:18:20;;;;;;;13.80;2.00;;;;;;;;;;5027626;28;20389;-65
2023/01/03 12:20:51;;;;;;;5.70;2.03;;;;;;;;;;5029324;28;20096;-65
2023/01/03 12:23:29;;;;;;;3.15;1.38;;;;;;;;;;5024633;28;20155;-67
2023/01/03 12:25:59;;;;;;;3.78;1.25;;;;;;;;;;5027783;28;20037;-65
2023/01/03 12:28:32;;;;;;;3.70;1.60;;;;;;;;;;5026494;28;20044;-65
2023/01/03 12:31:03;;;;;;;4.45;1.40;;;;;;;;;;5027374;28;20672;-66
2023/01/03 12:33:39;;;;;;;6.78;1.38;;;;;;;;;;5026036;28;20404;-66
2023/01/03 12:36:25;;;;;;;5.28;1.38;;;;;;;;;;5027761;28;20033;-66
2023/01/03 12:39:00;;;;;;;4.38;1.95;;;;;;;;;;5026594;28;20077;-66
2023/01/03 12:41:45;;;;;;;2.97;1.25;;;;;;;;;;5025895;28;20056;-66
2023/01/03 12:44:24;;;;;;;3.53;1.13;;;;;;;;;;5026383;28;20151;-65
2023/01/03 12:46:52;;;;;;;4.25;1.55;;;;;;;;;;5033105;28;20045;-66
2023/01/03 12:49:37;;;;;;;12.45;1.58;;;;;;;;;;5025939;28;20106;-67
2023/01/03 12:52:03;;;;;;;2.72;1.20;;;;;;;;;;5026366;28;20048;-66
2023/01/03 12:54:30;;;;;;;4.82;1.33;;;;;;;;;;5026658;28;20045;-67
2023/01/03 12:57:06;;;;;;;2.33;0.85;;;;;;;;;;5026261;28;20092;-66
2023/01/03 12:59:39;;;;;;;4.53;1.80;;;;;;;;;;5027170;28;20111;-67
2023/01/03 13:02:18;;;;;;;7.20;1.88;;;;;;;;;;5024558;28;20640;-66
2023/01/03 13:04:45;;;;;;;2.63;1.17;;;;;;;;;;5024404;28;20147;-66
2023/01/03 13:07:11;;;;;;;5.10;1.67;;;;;;;;;;5025651;28;20041;-66
2023/01/03 13:09:41;;;;;;;4.07;1.80;;;;;;;;;;5026701;28;20057;-66
2023/01/03 13:12:27;;;;;;;3.88;1.38;;;;;;;;;;5026242;28;20375;-66
2023/01/03 13:14:56;;;;;;;3.53;1.23;;;;;;;;;;5031705;28;20042;-66
2023/01/03 13:17:25;;;;;;;4.55;1.60;;;;;;;;;;5026136;28;20048;-66
2023/01/03 13:19:56;;;;;;;5.35;1.67;;;;;;;;;;5026806;28;20107;-67
2023/01/03 13:22:34;;;;;;;12.63;1.70;;;;;;;;;;5025741;28;20583;-67
2023/01/03 13:25:19;;;;;;;3.17;1.42;;;;;;;;;;5025991;28;20046;-67
2023/01/03 13:27:50;;;;;;;3.42;1.42;;;;;;;;;;5026482;28;20451;-68
2023/01/03 13:30:23;;;;;;;12.60;2.22;;;;;;;;;;5026048;28;20041;-67
2023/01/03 13:32:52;;;;;;;4.18;1.40;;;;;;;;;;5026118;28;20110;-67
2023/01/03 13:35:20;;;;;;;5.82;1.90;;;;;;;;;;5024782;28;20060;-68
2023/01/03 13:37:50;;;;;;;3.20;1.48;;;;;;;;;;5026709;28;20048;-66
2023/01/03 13:40:27;;;;;;;5.55;1.67;;;;;;;;;;5024372;28;20042;-66
2023/01/03 13:43:09;;;;;;;18.08;2.15;;;;;;;;;;5029342;28;20501;-66
2023/01/03 13:45:36;;;;;;;3.55;1.58;;;;;;;;;;5025224;28;20045;-67
2023/01/03 13:48:21;;;;;;;4.15;2.53;;;;;;;;;;5025147;28;20045;-67
2023/01/03 13:51:06;;;;;;;10.93;4.70;;;;;;;;;;5025729;28;20998;-67
2023/01/03 13:53:51;;;;;;;5.50;1.58;;;;;;;;;;5024939;28;20518;-66
2023/01/03 13:56:22;;;;;;;2.95;1.13;;;;;;;;;;5025551;28;20133;-71
2023/01/03 13:58:51;;;;;;;3.00;1.27;;;;;;;;;;5026959;28;20134;-67
2023/01/03 14:01:36;;;;;;;3.35;1.30;;;;;;;;;;5025550;28;20045;-67
2023/01/03 14:04:07;;;;;;;3.85;1.63;;;;;;;;;;5024725;28;20057;-69
2023/01/03 14:06:44;;;;;;;4.20;1.63;;;;;;;;;;5024166;28;20066;-68
2023/01/03 14:09:30;;;;;;;4.75;1.63;;;;;;;;;;5041899;28;20164;-67
2023/01/03 14:12:15;;;;;;;2.53;1.20;;;;;;;;;;5030933;28;20040;-66
2023/01/03 14:14:48;;;;;;;3.70;1.73;;;;;;;;;;5025190;28;20092;-68
2023/01/03 14:17:16;;;;;;;7.93;1.65;;;;;;;;;;5025494;28;20057;-67
2023/01/03 14:19:49;;;;;;;5.35;1.50;;;;;;;;;;5036661;28;20793;-66
2023/01/03 14:22:19;;;;;;;1.67;0.77;;;;;;;;;;5035567;28;20041;-67
2023/01/03 14:24:49;;;;;;;2.35;1.30;;;;;;;;;;5023852;28;20140;-66
2023/01/03 14:27:17;;;;;;;10.60;1.67;;;;;;;;;;5025089;28;20033;-67
2023/01/03 14:29:47;;;;;;;3.63;1.02;;;;;;;;;;5024202;28;20038;-67
2023/01/03 14:32:20;;;;;;;4.75;1.67;;;;;;;;;;5024823;28;20036;-66
2023/01/03 14:34:47;;;;;;;3.88;1.52;;;;;;;;;;5036538;28;20030;-66
2023/01/03 14:37:15;;;;;;;4.70;1.35;;;;;;;;;;5048267;28;20064;-67
2023/01/03 14:39:52;;;;;;;5.35;1.40;;;;;;;;;;5044935;28;20504;-67
2023/01/03 14:42:18;;;;;;;2.50;1.23;;;;;;;;;;5043338;28;20033;-71
2023/01/03 14:44:55;;;;;;;2.22;0.98;;;;;;;;;;5059099;28;20040;-67
2023/01/03 14:47:22;;;;;;;2.00;0.90;;;;;;;;;;5043240;28;20119;-67
2023/01/03 14:49:51;;;;;;;1.98;0.98;;;;;;;;;;5038616;28;20029;-66
2023/01/03 14:52:27;;;;;;;2.70;1.15;;;;;;;;;;5055312;28;20037;-66
2023/01/03 14:54:55;;;;;;;3.50;1.15;;;;;;;;;;5056894;28;20028;-66
2023/01/03 14:57:26;;;;;;;2.05;0.85;;;;;;;;;;5044943;28;20124;-66
2023/01/03 14:59:54;;;;;;;3.78;1.20;;;;;;;;;;5045720;28;20036;-67
2023/01/03 15:02:20;;;;;;;1.88;0.70;;;;;;;;;;5044286;28;20037;-67
2023/01/03 15:04:54;;;;;;;2.88;0.90;;;;;;;;;;5043332;28;20041;-66
2023/01/03 15:07:35;;;;;;;1.27;0.65;;;;;;;;;;5042269;28;20132;-64
2023/01/03 15:10:06;;;;;;;3.63;1.42;;;;;;;;;;5043729;28;20033;-65
2023/01/03 15:12:35;;;;;;;3.67;1.42;;;;;;;;;;5056530;28;20044;-66
2023/01/03 15:15:27;;;;;;;3.45;1.08;;;;;;;;;;5044316;28;20032;-64
2023/01/03 15:18:01;;;;;;;2.60;0.88;;;;;;;;;;5042371;28;20044;-66
2023/01/03 15:20:48;;;;;;;1.92;0.68;;;;;;;;;;5045083;28;20591;-65
2023/01/03 15:23:23;;;;;;;2.40;0.95;;;;;;;;;;5048403;28;20053;-65
2023/01/03 15:25:51;;;;;;;1.83;0.70;;;;;;;;;;5046412;28;20076;-65
2023/01/03 15:28:26;;;;;;;1.98;0.70;;;;;;;;;;5047717;28;20143;-64
2023/01/03 15:30:54;;;;;;;6.13;0.98;;;;;;;;;;5046783;28;20118;-66
2023/01/03 15:33:32;;;;;;;1.95;0.93;;;;;;;;;;5050104;28;20047;-65
2023/01/03 15:36:04;;;;;;;2.05;0.90;;;;;;;;;;5047776;28;20124;-66
2023/01/03 15:38:31;;;;;;;1.67;0.60;;;;;;;;;;5047817;28;20055;-65
2023/01/03 15:40:59;;;;;;;2.50;0.82;;;;;;;;;;5047844;28;20884;-65
2023/01/03 15:43:37;;;;;;;2.65;1.05;;;;;;;;;;5031565;28;20152;-66
2023/01/03 15:46:18;;;;;;;4.75;1.25;;;;;;;;;;5048839;28;20037;-67
2023/01/03 15:48:53;;;;;;;3.40;1.15;;;;;;;;;;5046187;28;20047;-66
2023/01/03 15:51:20;;;;;;;4.53;1.08;;;;;;;;;;5046194;28;20041;-65
2023/01/03 15:53:47;;;;;;;2.72;1.02;;;;;;;;;;5047735;28;22364;-67
2023/01/03 15:56:17;;;;;;;3.22;1.33;;;;;;;;;;5047578;28;20317;-64
2023/01/03 15:58:44;;;;;;;7.43;1.40;;;;;;;;;;5048551;28;20047;-66
2023/01/03 16:01:11;;;;;;;2.88;1.25;;;;;;;;;;5047657;28;20051;-65
2023/01/03 16:03:38;;;;;;;6.15;1.50;;;;;;;;;;5046020;28;20049;-66